sensor_id;sensor_type;location;lat;lon;timestamp;P1;durP1;ratioP1;P2;durP2;ratioP2
19492;SDS011;9887;54.366;10.958;2024-01-30T00:02:19;13.73;;;9.82;;
19492;SDS011;9887;54.366;10.958;2024-01-30T00:04:47;15.63;;;10.25;;
19492;SDS011;9887;54.366;10.958;2024-01-30T00:07:15;13.30;;;9.60;;
19492;SDS011;9887;54.366;10.958;2024-01-30T00:09:46;17.15;;;10.80;;
19492;SDS011;9887;54.366;10.958;2024-01-30T00:12:14;15.85;;;9.95;;
19492;SDS011;9887;54.366;10.958;2024-01-30T00:14:43;13.45;;;9.95;;
19492;SDS011;9887;54.366;10.958;2024-01-30T00:17:11;14.30;;;9.13;;
19492;SDS011;9887;54.366;10.958;2024-01-30T00:19:39;13.48;;;9.60;;
19492;SDS011;9887;54.366;10.958;2024-01-30T00:22:06;14.60;;;10.20;;
19492;SDS011;9887;54.366;10.958;2024-01-30T00:24:35;15.30;;;9.80;;
19492;SDS011;9887;54.366;10.958;2024-01-30T00:27:03;12.65;;;9.80;;
19492;SDS011;9887;54.366;10.958;2024-01-30T00:29:31;12.90;;;9.50;;
19492;SDS011;9887;54.366;10.958;2024-01-30T00:32:01;13.32;;;9.05;;
19492;SDS011;9887;54.366;10.958;2024-01-30T00:34:29;13.95;;;10.48;;
19492;SDS011;9887;54.366;10.958;2024-01-30T00:36:57;15.27;;;10.15;;
19492;SDS011;9887;54.366;10.958;2024-01-30T00:39:25;16.92;;;10.80;;
19492;SDS011;9887;54.366;10.958;2024-01-30T00:41:54;17.13;;;10.90;;
19492;SDS011;9887;54.366;10.958;2024-01-30T00:44:22;17.67;;;11.13;;
19492;SDS011;9887;54.366;10.958;2024-01-30T00:46:49;15.80;;;10.65;;
19492;SDS011;9887;54.366;10.958;2024-01-30T00:49:18;17.25;;;10.57;;
19492;SDS011;9887;54.366;10.958;2024-01-30T00:51:46;17.17;;;11.00;;
19492;SDS011;9887;54.366;10.958;2024-01-30T00:54:14;17.50;;;10.60;;
19492;SDS011;9887;54.366;10.958;2024-01-30T00:56:42;15.18;;;10.20;;
19492;SDS011;9887;54.366;10.958;2024-01-30T00:59:10;19.83;;;11.43;;
19492;SDS011;9887;54.366;10.958;2024-01-30T01:01:38;18.13;;;11.30;;
19492;SDS011;9887;54.366;10.958;2024-01-30T01:04:06;17.40;;;11.02;;
19492;SDS011;9887;54.366;10.958;2024-01-30T01:06:35;17.92;;;11.27;;
19492;SDS011;9887;54.366;10.958;2024-01-30T01:09:03;17.45;;;11.13;;
19492;SDS011;9887;54.366;10.958;2024-01-30T01:11:31;20.23;;;11.65;;
19492;SDS011;9887;54.366;10.958;2024-01-30T01:13:59;24.40;;;12.10;;
19492;SDS011;9887;54.366;10.958;2024-01-30T01:16:27;20.80;;;11.90;;
19492;SDS011;9887;54.366;10.958;2024-01-30T01:18:55;17.35;;;11.65;;
19492;SDS011;9887;54.366;10.958;2024-01-30T01:21:23;20.15;;;11.80;;
19492;SDS011;9887;54.366;10.958;2024-01-30T01:23:52;21.70;;;11.25;;
19492;SDS011;9887;54.366;10.958;2024-01-30T01:26:20;20.33;;;11.63;;
19492;SDS011;9887;54.366;10.958;2024-01-30T01:28:48;20.83;;;11.35;;
19492;SDS011;9887;54.366;10.958;2024-01-30T01:31:16;20.60;;;11.55;;
19492;SDS011;9887;54.366;10.958;2024-01-30T01:33:44;21.95;;;11.73;;
19492;SDS011;9887;54.366;10.958;2024-01-30T01:36:13;20.20;;;11.68;;
19492;SDS011;9887;54.366;10.958;2024-01-30T01:38:41;24.20;;;11.93;;
19492;SDS011;9887;54.366;10.958;2024-01-30T01:41:10;21.73;;;12.13;;
19492;SDS011;9887;54.366;10.958;2024-01-30T01:43:38;23.83;;;12.48;;
19492;SDS011;9887;54.366;10.958;2024-01-30T01:46:06;24.77;;;13.10;;
19492;SDS011;9887;54.366;10.958;2024-01-30T01:48:35;23.80;;;12.52;;
19492;SDS011;9887;54.366;10.958;2024-01-30T01:51:06;22.13;;;12.00;;
19492;SDS011;9887;54.366;10.958;2024-01-30T01:53:34;23.77;;;12.38;;
19492;SDS011;9887;54.366;10.958;2024-01-30T01:56:02;26.40;;;13.25;;
19492;SDS011;9887;54.366;10.958;2024-01-30T01:58:31;22.10;;;12.20;;
19492;SDS011;9887;54.366;10.958;2024-01-30T02:00:59;24.48;;;12.27;;
19492;SDS011;9887;54.366;10.958;2024-01-30T02:03:27;23.77;;;13.98;;
19492;SDS011;9887;54.366;10.958;2024-01-30T02:05:56;29.00;;;12.60;;
19492;SDS011;9887;54.366;10.958;2024-01-30T02:08:24;27.33;;;13.80;;
19492;SDS011;9887;54.366;10.958;2024-01-30T02:10:52;24.23;;;12.93;;
19492;SDS011;9887;54.366;10.958;2024-01-30T02:13:20;26.20;;;14.38;;
19492;SDS011;9887;54.366;10.958;2024-01-30T02:15:51;23.25;;;12.20;;
19492;SDS011;9887;54.366;10.958;2024-01-30T02:18:19;29.83;;;13.60;;
19492;SDS011;9887;54.366;10.958;2024-01-30T02:20:47;27.88;;;14.18;;
19492;SDS011;9887;54.366;10.958;2024-01-30T02:23:17;24.73;;;12.75;;
19492;SDS011;9887;54.366;10.958;2024-01-30T02:25:46;22.80;;;12.88;;
19492;SDS011;9887;54.366;10.958;2024-01-30T02:28:14;23.52;;;12.70;;
19492;SDS011;9887;54.366;10.958;2024-01-30T02:30:42;26.85;;;13.10;;
19492;SDS011;9887;54.366;10.958;2024-01-30T02:33:10;23.65;;;11.50;;
19492;SDS011;9887;54.366;10.958;2024-01-30T02:35:38;26.20;;;12.73;;
19492;SDS011;9887;54.366;10.958;2024-01-30T02:38:06;27.48;;;13.90;;
19492;SDS011;9887;54.366;10.958;2024-01-30T02:40:36;29.50;;;14.18;;
19492;SDS011;9887;54.366;10.958;2024-01-30T02:43:04;28.17;;;14.75;;
19492;SDS011;9887;54.366;10.958;2024-01-30T02:45:32;29.83;;;15.65;;
19492;SDS011;9887;54.366;10.958;2024-01-30T02:48:00;32.97;;;15.45;;
19492;SDS011;9887;54.366;10.958;2024-01-30T02:50:28;27.75;;;15.15;;
19492;SDS011;9887;54.366;10.958;2024-01-30T02:52:55;30.30;;;16.83;;
19492;SDS011;9887;54.366;10.958;2024-01-30T02:55:23;30.85;;;16.10;;
19492;SDS011;9887;54.366;10.958;2024-01-30T02:57:53;28.88;;;15.65;;
19492;SDS011;9887;54.366;10.958;2024-01-30T03:00:20;28.17;;;14.73;;
19492;SDS011;9887;54.366;10.958;2024-01-30T03:02:48;31.88;;;16.15;;
19492;SDS011;9887;54.366;10.958;2024-01-30T03:05:16;28.98;;;15.82;;
19492;SDS011;9887;54.366;10.958;2024-01-30T03:07:44;29.35;;;14.75;;
19492;SDS011;9887;54.366;10.958;2024-01-30T03:10:12;27.60;;;15.02;;
19492;SDS011;9887;54.366;10.958;2024-01-30T03:12:40;28.40;;;15.02;;
19492;SDS011;9887;54.366;10.958;2024-01-30T03:15:09;30.40;;;15.15;;
19492;SDS011;9887;54.366;10.958;2024-01-30T03:17:37;30.52;;;14.52;;
19492;SDS011;9887;54.366;10.958;2024-01-30T03:20:05;27.88;;;15.10;;
19492;SDS011;9887;54.366;10.958;2024-01-30T03:22:34;30.13;;;15.05;;
19492;SDS011;9887;54.366;10.958;2024-01-30T03:25:02;29.15;;;15.40;;
19492;SDS011;9887;54.366;10.958;2024-01-30T03:27:32;36.40;;;17.00;;
19492;SDS011;9887;54.366;10.958;2024-01-30T03:30:00;34.35;;;16.25;;
19492;SDS011;9887;54.366;10.958;2024-01-30T03:32:30;33.70;;;16.38;;
19492;SDS011;9887;54.366;10.958;2024-01-30T03:34:58;35.75;;;16.30;;
19492;SDS011;9887;54.366;10.958;2024-01-30T03:37:26;37.33;;;16.90;;
19492;SDS011;9887;54.366;10.958;2024-01-30T03:39:54;42.53;;;17.48;;
19492;SDS011;9887;54.366;10.958;2024-01-30T03:42:22;40.53;;;16.33;;
19492;SDS011;9887;54.366;10.958;2024-01-30T03:44:49;37.20;;;15.82;;
19492;SDS011;9887;54.366;10.958;2024-01-30T03:47:19;34.45;;;16.52;;
19492;SDS011;9887;54.366;10.958;2024-01-30T03:49:49;40.95;;;16.63;;
19492;SDS011;9887;54.366;10.958;2024-01-30T03:52:17;34.47;;;16.33;;
19492;SDS011;9887;54.366;10.958;2024-01-30T03:54:45;40.95;;;17.75;;
19492;SDS011;9887;54.366;10.958;2024-01-30T03:57:13;41.25;;;17.50;;
19492;SDS011;9887;54.366;10.958;2024-01-30T03:59:41;39.17;;;17.80;;
19492;SDS011;9887;54.366;10.958;2024-01-30T04:02:09;33.53;;;16.60;;
19492;SDS011;9887;54.366;10.958;2024-01-30T04:04:38;35.58;;;16.70;;
19492;SDS011;9887;54.366;10.958;2024-01-30T04:07:07;34.70;;;17.30;;
19492;SDS011;9887;54.366;10.958;2024-01-30T04:09:35;29.33;;;15.85;;
19492;SDS011;9887;54.366;10.958;2024-01-30T04:12:03;34.17;;;16.17;;
19492;SDS011;9887;54.366;10.958;2024-01-30T04:14:31;30.17;;;15.15;;
19492;SDS011;9887;54.366;10.958;2024-01-30T04:16:59;32.80;;;16.23;;
19492;SDS011;9887;54.366;10.958;2024-01-30T04:19:27;34.58;;;15.73;;
19492;SDS011;9887;54.366;10.958;2024-01-30T04:21:55;28.13;;;14.48;;
19492;SDS011;9887;54.366;10.958;2024-01-30T04:24:24;29.55;;;13.95;;
19492;SDS011;9887;54.366;10.958;2024-01-30T04:26:52;25.25;;;14.65;;
19492;SDS011;9887;54.366;10.958;2024-01-30T04:29:19;26.42;;;14.05;;
19492;SDS011;9887;54.366;10.958;2024-01-30T04:31:48;22.95;;;12.73;;
19492;SDS011;9887;54.366;10.958;2024-01-30T04:34:16;20.88;;;11.65;;
19492;SDS011;9887;54.366;10.958;2024-01-30T04:36:44;21.92;;;12.38;;
19492;SDS011;9887;54.366;10.958;2024-01-30T04:39:12;22.05;;;12.18;;
19492;SDS011;9887;54.366;10.958;2024-01-30T04:41:41;19.45;;;11.07;;
19492;SDS011;9887;54.366;10.958;2024-01-30T04:44:09;16.25;;;9.38;;
19492;SDS011;9887;54.366;10.958;2024-01-30T04:46:37;16.90;;;9.70;;
19492;SDS011;9887;54.366;10.958;2024-01-30T04:49:05;16.13;;;8.98;;
19492;SDS011;9887;54.366;10.958;2024-01-30T04:51:34;14.57;;;8.63;;
19492;SDS011;9887;54.366;10.958;2024-01-30T04:54:02;10.82;;;8.02;;
19492;SDS011;9887;54.366;10.958;2024-01-30T04:56:30;10.98;;;7.35;;
19492;SDS011;9887;54.366;10.958;2024-01-30T04:58:59;10.60;;;7.10;;
19492;SDS011;9887;54.366;10.958;2024-01-30T05:01:27;12.25;;;6.97;;
19492;SDS011;9887;54.366;10.958;2024-01-30T05:03:55;10.82;;;6.88;;
19492;SDS011;9887;54.366;10.958;2024-01-30T05:06:23;9.02;;;6.75;;
19492;SDS011;9887;54.366;10.958;2024-01-30T05:08:52;10.75;;;6.90;;
19492;SDS011;9887;54.366;10.958;2024-01-30T05:11:21;10.82;;;7.38;;
19492;SDS011;9887;54.366;10.958;2024-01-30T05:13:49;11.45;;;7.38;;
19492;SDS011;9887;54.366;10.958;2024-01-30T05:16:18;10.65;;;7.43;;
19492;SDS011;9887;54.366;10.958;2024-01-30T05:18:46;10.52;;;7.00;;
19492;SDS011;9887;54.366;10.958;2024-01-30T05:21:14;9.55;;;6.28;;
19492;SDS011;9887;54.366;10.958;2024-01-30T05:23:42;10.50;;;6.45;;
19492;SDS011;9887;54.366;10.958;2024-01-30T05:26:10;13.82;;;6.68;;
19492;SDS011;9887;54.366;10.958;2024-01-30T05:28:38;9.50;;;7.05;;
19492;SDS011;9887;54.366;10.958;2024-01-30T05:31:05;10.18;;;6.70;;
19492;SDS011;9887;54.366;10.958;2024-01-30T05:33:35;11.40;;;6.60;;
19492;SDS011;9887;54.366;10.958;2024-01-30T05:36:03;8.55;;;6.25;;
19492;SDS011;9887;54.366;10.958;2024-01-30T05:38:31;9.70;;;6.63;;
19492;SDS011;9887;54.366;10.958;2024-01-30T05:40:59;8.57;;;6.28;;
19492;SDS011;9887;54.366;10.958;2024-01-30T05:43:28;10.38;;;6.70;;
19492;SDS011;9887;54.366;10.958;2024-01-30T05:45:56;10.65;;;6.72;;
19492;SDS011;9887;54.366;10.958;2024-01-30T05:48:24;10.27;;;7.00;;
19492;SDS011;9887;54.366;10.958;2024-01-30T05:50:53;9.30;;;6.30;;
19492;SDS011;9887;54.366;10.958;2024-01-30T05:53:21;9.50;;;6.25;;
19492;SDS011;9887;54.366;10.958;2024-01-30T05:55:49;10.40;;;6.68;;
19492;SDS011;9887;54.366;10.958;2024-01-30T05:58:17;10.02;;;6.47;;
19492;SDS011;9887;54.366;10.958;2024-01-30T06:00:45;10.98;;;6.35;;
19492;SDS011;9887;54.366;10.958;2024-01-30T06:03:13;10.13;;;6.00;;
19492;SDS011;9887;54.366;10.958;2024-01-30T06:05:41;10.05;;;6.05;;
19492;SDS011;9887;54.366;10.958;2024-01-30T06:08:10;9.98;;;6.68;;
19492;SDS011;9887;54.366;10.958;2024-01-30T06:10:38;11.20;;;7.15;;
19492;SDS011;9887;54.366;10.958;2024-01-30T06:13:06;9.65;;;6.88;;
19492;SDS011;9887;54.366;10.958;2024-01-30T06:15:34;9.35;;;6.85;;
19492;SDS011;9887;54.366;10.958;2024-01-30T06:18:02;9.13;;;6.20;;
19492;SDS011;9887;54.366;10.958;2024-01-30T06:20:30;12.15;;;7.32;;
19492;SDS011;9887;54.366;10.958;2024-01-30T06:22:58;11.20;;;6.97;;
19492;SDS011;9887;54.366;10.958;2024-01-30T06:25:27;10.38;;;6.80;;
19492;SDS011;9887;54.366;10.958;2024-01-30T06:27:55;9.15;;;6.85;;
19492;SDS011;9887;54.366;10.958;2024-01-30T06:30:23;11.15;;;6.57;;
19492;SDS011;9887;54.366;10.958;2024-01-30T06:32:51;9.88;;;6.97;;
19492;SDS011;9887;54.366;10.958;2024-01-30T06:35:19;10.43;;;7.07;;
19492;SDS011;9887;54.366;10.958;2024-01-30T06:37:48;9.57;;;7.15;;
19492;SDS011;9887;54.366;10.958;2024-01-30T06:40:16;12.00;;;7.90;;
19492;SDS011;9887;54.366;10.958;2024-01-30T06:42:45;11.02;;;7.40;;
19492;SDS011;9887;54.366;10.958;2024-01-30T06:45:13;10.38;;;7.25;;
19492;SDS011;9887;54.366;10.958;2024-01-30T06:47:41;10.77;;;7.18;;
19492;SDS011;9887;54.366;10.958;2024-01-30T06:50:09;9.13;;;6.90;;
19492;SDS011;9887;54.366;10.958;2024-01-30T06:52:38;10.75;;;6.90;;
19492;SDS011;9887;54.366;10.958;2024-01-30T06:55:06;12.23;;;7.13;;
19492;SDS011;9887;54.366;10.958;2024-01-30T06:57:34;10.43;;;7.45;;
19492;SDS011;9887;54.366;10.958;2024-01-30T07:00:04;9.75;;;7.00;;
19492;SDS011;9887;54.366;10.958;2024-01-30T07:02:33;10.00;;;7.10;;
19492;SDS011;9887;54.366;10.958;2024-01-30T07:05:01;11.32;;;7.28;;
19492;SDS011;9887;54.366;10.958;2024-01-30T07:07:30;12.90;;;7.68;;
19492;SDS011;9887;54.366;10.958;2024-01-30T07:09:58;12.52;;;7.57;;
19492;SDS011;9887;54.366;10.958;2024-01-30T07:12:26;11.10;;;7.53;;
19492;SDS011;9887;54.366;10.958;2024-01-30T07:14:54;12.05;;;6.95;;
19492;SDS011;9887;54.366;10.958;2024-01-30T07:17:24;12.80;;;7.32;;
19492;SDS011;9887;54.366;10.958;2024-01-30T07:19:52;10.52;;;7.57;;
19492;SDS011;9887;54.366;10.958;2024-01-30T07:22:20;9.88;;;7.22;;
19492;SDS011;9887;54.366;10.958;2024-01-30T07:24:48;15.32;;;8.00;;
19492;SDS011;9887;54.366;10.958;2024-01-30T07:27:18;14.98;;;8.07;;
19492;SDS011;9887;54.366;10.958;2024-01-30T07:29:46;12.00;;;7.53;;
19492;SDS011;9887;54.366;10.958;2024-01-30T07:32:13;9.43;;;6.65;;
19492;SDS011;9887;54.366;10.958;2024-01-30T07:34:43;11.90;;;7.35;;
19492;SDS011;9887;54.366;10.958;2024-01-30T07:37:28;12.23;;;7.30;;
19492;SDS011;9887;54.366;10.958;2024-01-30T07:39:56;11.85;;;7.53;;
19492;SDS011;9887;54.366;10.958;2024-01-30T07:42:24;10.55;;;7.22;;
19492;SDS011;9887;54.366;10.958;2024-01-30T07:44:52;10.63;;;7.10;;
19492;SDS011;9887;54.366;10.958;2024-01-30T07:47:20;9.82;;;7.25;;
19492;SDS011;9887;54.366;10.958;2024-01-30T07:49:49;12.95;;;8.07;;
19492;SDS011;9887;54.366;10.958;2024-01-30T07:52:17;11.93;;;7.70;;
19492;SDS011;9887;54.366;10.958;2024-01-30T07:54:45;12.13;;;8.40;;
19492;SDS011;9887;54.366;10.958;2024-01-30T07:57:13;12.15;;;8.00;;
19492;SDS011;9887;54.366;10.958;2024-01-30T07:59:41;12.50;;;7.45;;
19492;SDS011;9887;54.366;10.958;2024-01-30T08:02:12;12.50;;;8.23;;
19492;SDS011;9887;54.366;10.958;2024-01-30T08:04:40;10.48;;;7.75;;
19492;SDS011;9887;54.366;10.958;2024-01-30T08:07:10;11.90;;;8.68;;
19492;SDS011;9887;54.366;10.958;2024-01-30T08:09:38;12.68;;;8.70;;
19492;SDS011;9887;54.366;10.958;2024-01-30T08:12:06;12.90;;;7.90;;
19492;SDS011;9887;54.366;10.958;2024-01-30T08:14:34;11.85;;;8.15;;
19492;SDS011;9887;54.366;10.958;2024-01-30T08:17:01;14.15;;;8.50;;
19492;SDS011;9887;54.366;10.958;2024-01-30T08:19:30;10.80;;;7.85;;
19492;SDS011;9887;54.366;10.958;2024-01-30T08:21:57;12.57;;;8.35;;
19492;SDS011;9887;54.366;10.958;2024-01-30T08:24:27;12.32;;;8.20;;
19492;SDS011;9887;54.366;10.958;2024-01-30T08:26:55;12.75;;;8.23;;
19492;SDS011;9887;54.366;10.958;2024-01-30T08:29:24;14.52;;;8.10;;
19492;SDS011;9887;54.366;10.958;2024-01-30T08:31:52;11.90;;;8.00;;
19492;SDS011;9887;54.366;10.958;2024-01-30T08:34:21;12.70;;;7.97;;
19492;SDS011;9887;54.366;10.958;2024-01-30T08:36:49;10.25;;;7.60;;
19492;SDS011;9887;54.366;10.958;2024-01-30T08:39:17;15.40;;;8.40;;
19492;SDS011;9887;54.366;10.958;2024-01-30T08:41:46;15.35;;;8.43;;
19492;SDS011;9887;54.366;10.958;2024-01-30T08:44:14;13.02;;;8.73;;
19492;SDS011;9887;54.366;10.958;2024-01-30T08:46:43;14.13;;;9.32;;
19492;SDS011;9887;54.366;10.958;2024-01-30T08:49:12;17.77;;;11.43;;
19492;SDS011;9887;54.366;10.958;2024-01-30T08:51:40;16.98;;;11.75;;
19492;SDS011;9887;54.366;10.958;2024-01-30T08:54:08;16.02;;;11.07;;
19492;SDS011;9887;54.366;10.958;2024-01-30T08:56:36;13.05;;;9.90;;
19492;SDS011;9887;54.366;10.958;2024-01-30T08:59:05;16.73;;;10.43;;
19492;SDS011;9887;54.366;10.958;2024-01-30T09:01:36;15.18;;;10.60;;
19492;SDS011;9887;54.366;10.958;2024-01-30T09:04:05;14.82;;;10.45;;
19492;SDS011;9887;54.366;10.958;2024-01-30T09:06:33;13.98;;;9.85;;
19492;SDS011;9887;54.366;10.958;2024-01-30T09:09:01;16.05;;;10.80;;
19492;SDS011;9887;54.366;10.958;2024-01-30T09:11:31;21.48;;;12.30;;
19492;SDS011;9887;54.366;10.958;2024-01-30T09:13:59;22.33;;;13.25;;
19492;SDS011;9887;54.366;10.958;2024-01-30T09:16:28;26.38;;;15.75;;
19492;SDS011;9887;54.366;10.958;2024-01-30T09:18:56;25.63;;;15.50;;
19492;SDS011;9887;54.366;10.958;2024-01-30T09:21:24;25.13;;;15.27;;
19492;SDS011;9887;54.366;10.958;2024-01-30T09:23:52;24.20;;;13.35;;
19492;SDS011;9887;54.366;10.958;2024-01-30T09:26:21;20.27;;;12.48;;
19492;SDS011;9887;54.366;10.958;2024-01-30T09:28:52;19.15;;;11.07;;
19492;SDS011;9887;54.366;10.958;2024-01-30T09:31:20;15.98;;;11.18;;
19492;SDS011;9887;54.366;10.958;2024-01-30T09:33:49;18.75;;;11.90;;
19492;SDS011;9887;54.366;10.958;2024-01-30T09:36:20;16.60;;;11.02;;
19492;SDS011;9887;54.366;10.958;2024-01-30T09:38:48;18.30;;;10.95;;
19492;SDS011;9887;54.366;10.958;2024-01-30T09:41:16;17.80;;;10.57;;
19492;SDS011;9887;54.366;10.958;2024-01-30T09:43:47;14.45;;;10.48;;
19492;SDS011;9887;54.366;10.958;2024-01-30T09:46:16;13.30;;;9.70;;
19492;SDS011;9887;54.366;10.958;2024-01-30T09:48:45;15.55;;;10.93;;
19492;SDS011;9887;54.366;10.958;2024-01-30T09:51:15;18.70;;;11.55;;
19492;SDS011;9887;54.366;10.958;2024-01-30T09:53:44;24.10;;;12.15;;
19492;SDS011;9887;54.366;10.958;2024-01-30T09:56:12;18.55;;;10.82;;
19492;SDS011;9887;54.366;10.958;2024-01-30T09:58:40;16.65;;;10.80;;
19492;SDS011;9887;54.366;10.958;2024-01-30T10:01:08;17.88;;;10.88;;
19492;SDS011;9887;54.366;10.958;2024-01-30T10:03:37;15.60;;;10.07;;
19492;SDS011;9887;54.366;10.958;2024-01-30T10:06:05;14.55;;;9.73;;
19492;SDS011;9887;54.366;10.958;2024-01-30T10:08:36;15.32;;;10.23;;
19492;SDS011;9887;54.366;10.958;2024-01-30T10:11:04;15.45;;;10.20;;
19492;SDS011;9887;54.366;10.958;2024-01-30T10:13:32;15.85;;;10.23;;
19492;SDS011;9887;54.366;10.958;2024-01-30T10:16:01;13.32;;;9.48;;
19492;SDS011;9887;54.366;10.958;2024-01-30T10:18:29;13.98;;;9.55;;
19492;SDS011;9887;54.366;10.958;2024-01-30T10:20:57;14.60;;;10.20;;
19492;SDS011;9887;54.366;10.958;2024-01-30T10:23:26;17.05;;;9.98;;
19492;SDS011;9887;54.366;10.958;2024-01-30T10:26:02;17.08;;;10.30;;
19492;SDS011;9887;54.366;10.958;2024-01-30T10:28:30;13.68;;;9.60;;
19492;SDS011;9887;54.366;10.958;2024-01-30T10:30:58;16.73;;;9.80;;
19492;SDS011;9887;54.366;10.958;2024-01-30T10:33:31;18.92;;;10.07;;
19492;SDS011;9887;54.366;10.958;2024-01-30T10:36:00;15.65;;;10.07;;
19492;SDS011;9887;54.366;10.958;2024-01-30T10:38:29;13.80;;;10.02;;
19492;SDS011;9887;54.366;10.958;2024-01-30T10:40:59;14.90;;;10.32;;
19492;SDS011;9887;54.366;10.958;2024-01-30T10:43:30;16.80;;;10.45;;
19492;SDS011;9887;54.366;10.958;2024-01-30T10:46:02;14.45;;;10.15;;
19492;SDS011;9887;54.366;10.958;2024-01-30T10:48:36;14.70;;;9.98;;
19492;SDS011;9887;54.366;10.958;2024-01-30T10:51:11;16.58;;;9.60;;
19492;SDS011;9887;54.366;10.958;2024-01-30T10:53:40;16.55;;;10.27;;
19492;SDS011;9887;54.366;10.958;2024-01-30T10:56:11;14.05;;;10.10;;
19492;SDS011;9887;54.366;10.958;2024-01-30T10:58:42;15.75;;;9.85;;
19492;SDS011;9887;54.366;10.958;2024-01-30T11:01:10;14.15;;;10.00;;
19492;SDS011;9887;54.366;10.958;2024-01-30T11:03:38;14.43;;;9.85;;
19492;SDS011;9887;54.366;10.958;2024-01-30T11:06:10;16.65;;;10.73;;
19492;SDS011;9887;54.366;10.958;2024-01-30T11:08:40;15.35;;;10.63;;
19492;SDS011;9887;54.366;10.958;2024-01-30T11:11:09;16.77;;;10.35;;
19492;SDS011;9887;54.366;10.958;2024-01-30T11:13:41;14.23;;;10.23;;
19492;SDS011;9887;54.366;10.958;2024-01-30T11:16:09;16.10;;;10.10;;
19492;SDS011;9887;54.366;10.958;2024-01-30T11:18:39;14.20;;;9.98;;
19492;SDS011;9887;54.366;10.958;2024-01-30T11:21:07;16.38;;;10.18;;
19492;SDS011;9887;54.366;10.958;2024-01-30T11:23:34;13.65;;;10.00;;
19492;SDS011;9887;54.366;10.958;2024-01-30T11:26:03;17.45;;;10.35;;
19492;SDS011;9887;54.366;10.958;2024-01-30T11:28:32;15.15;;;10.20;;
19492;SDS011;9887;54.366;10.958;2024-01-30T11:31:06;15.57;;;10.55;;
19492;SDS011;9887;54.366;10.958;2024-01-30T11:33:34;16.13;;;11.73;;
19492;SDS011;9887;54.366;10.958;2024-01-30T11:36:03;15.27;;;11.38;;
19492;SDS011;9887;54.366;10.958;2024-01-30T11:38:33;15.57;;;10.32;;
19492;SDS011;9887;54.366;10.958;2024-01-30T11:41:01;15.07;;;10.93;;
19492;SDS011;9887;54.366;10.958;2024-01-30T11:43:30;19.20;;;11.48;;
19492;SDS011;9887;54.366;10.958;2024-01-30T11:46:00;16.27;;;10.80;;
19492;SDS011;9887;54.366;10.958;2024-01-30T11:48:30;19.35;;;10.50;;
19492;SDS011;9887;54.366;10.958;2024-01-30T11:50:58;15.85;;;10.25;;
19492;SDS011;9887;54.366;10.958;2024-01-30T11:53:26;15.40;;;10.35;;
19492;SDS011;9887;54.366;10.958;2024-01-30T11:55:54;18.10;;;11.05;;
19492;SDS011;9887;54.366;10.958;2024-01-30T11:58:24;15.77;;;11.35;;
19492;SDS011;9887;54.366;10.958;2024-01-30T12:00:52;16.10;;;10.80;;
19492;SDS011;9887;54.366;10.958;2024-01-30T12:03:22;14.55;;;10.25;;
19492;SDS011;9887;54.366;10.958;2024-01-30T12:05:56;17.75;;;11.07;;
19492;SDS011;9887;54.366;10.958;2024-01-30T12:08:25;16.23;;;10.98;;
19492;SDS011;9887;54.366;10.958;2024-01-30T12:10:56;17.08;;;10.95;;
19492;SDS011;9887;54.366;10.958;2024-01-30T12:13:27;17.27;;;11.13;;
19492;SDS011;9887;54.366;10.958;2024-01-30T12:15:59;16.80;;;11.68;;
19492;SDS011;9887;54.366;10.958;2024-01-30T12:18:27;15.85;;;10.88;;
19492;SDS011;9887;54.366;10.958;2024-01-30T12:20:59;18.63;;;11.02;;
19492;SDS011;9887;54.366;10.958;2024-01-30T12:23:28;13.77;;;10.80;;
19492;SDS011;9887;54.366;10.958;2024-01-30T12:25:56;19.75;;;11.40;;
19492;SDS011;9887;54.366;10.958;2024-01-30T12:28:25;15.88;;;11.68;;
19492;SDS011;9887;54.366;10.958;2024-01-30T12:30:55;13.55;;;10.35;;
19492;SDS011;9887;54.366;10.958;2024-01-30T12:33:26;16.33;;;11.07;;
19492;SDS011;9887;54.366;10.958;2024-01-30T12:35:54;16.15;;;10.68;;
19492;SDS011;9887;54.366;10.958;2024-01-30T12:38:30;16.30;;;10.98;;
19492;SDS011;9887;54.366;10.958;2024-01-30T12:40:58;16.77;;;11.05;;
19492;SDS011;9887;54.366;10.958;2024-01-30T12:43:26;16.40;;;11.13;;
19492;SDS011;9887;54.366;10.958;2024-01-30T12:46:04;17.00;;;10.82;;
19492;SDS011;9887;54.366;10.958;2024-01-30T12:48:33;14.70;;;10.80;;
19492;SDS011;9887;54.366;10.958;2024-01-30T12:51:01;15.52;;;10.95;;
19492;SDS011;9887;54.366;10.958;2024-01-30T12:53:30;15.15;;;11.20;;
19492;SDS011;9887;54.366;10.958;2024-01-30T12:55:59;14.68;;;10.27;;
19492;SDS011;9887;54.366;10.958;2024-01-30T12:58:27;17.95;;;11.77;;
19492;SDS011;9887;54.366;10.958;2024-01-30T13:00:55;17.90;;;10.00;;
19492;SDS011;9887;54.366;10.958;2024-01-30T13:03:24;17.35;;;10.50;;
19492;SDS011;9887;54.366;10.958;2024-01-30T13:05:52;15.65;;;10.32;;
19492;SDS011;9887;54.366;10.958;2024-01-30T13:08:21;15.20;;;11.05;;
19492;SDS011;9887;54.366;10.958;2024-01-30T13:10:50;13.95;;;11.00;;
19492;SDS011;9887;54.366;10.958;2024-01-30T13:13:19;18.08;;;10.68;;
19492;SDS011;9887;54.366;10.958;2024-01-30T13:15:46;15.10;;;10.65;;
19492;SDS011;9887;54.366;10.958;2024-01-30T13:18:15;15.98;;;10.95;;
19492;SDS011;9887;54.366;10.958;2024-01-30T13:20:43;15.55;;;11.38;;
19492;SDS011;9887;54.366;10.958;2024-01-30T13:23:10;16.25;;;10.80;;
19492;SDS011;9887;54.366;10.958;2024-01-30T13:25:38;14.40;;;10.70;;
19492;SDS011;9887;54.366;10.958;2024-01-30T13:28:07;16.65;;;10.38;;
19492;SDS011;9887;54.366;10.958;2024-01-30T13:30:35;14.20;;;10.88;;
19492;SDS011;9887;54.366;10.958;2024-01-30T13:33:04;18.45;;;11.75;;
19492;SDS011;9887;54.366;10.958;2024-01-30T13:35:32;14.20;;;10.52;;
19492;SDS011;9887;54.366;10.958;2024-01-30T13:38:00;15.45;;;10.90;;
19492;SDS011;9887;54.366;10.958;2024-01-30T13:40:28;14.75;;;10.27;;
19492;SDS011;9887;54.366;10.958;2024-01-30T13:42:56;15.65;;;11.05;;
19492;SDS011;9887;54.366;10.958;2024-01-30T13:45:26;16.02;;;11.18;;
19492;SDS011;9887;54.366;10.958;2024-01-30T13:47:53;13.65;;;10.05;;
19492;SDS011;9887;54.366;10.958;2024-01-30T13:50:22;13.98;;;10.77;;
19492;SDS011;9887;54.366;10.958;2024-01-30T13:52:49;15.40;;;10.65;;
19492;SDS011;9887;54.366;10.958;2024-01-30T13:55:18;19.63;;;11.50;;
19492;SDS011;9887;54.366;10.958;2024-01-30T13:57:46;17.98;;;11.15;;
19492;SDS011;9887;54.366;10.958;2024-01-30T14:00:17;16.48;;;11.02;;
19492;SDS011;9887;54.366;10.958;2024-01-30T14:02:47;15.15;;;10.48;;
19492;SDS011;9887;54.366;10.958;2024-01-30T14:05:15;15.45;;;10.52;;
19492;SDS011;9887;54.366;10.958;2024-01-30T14:07:45;15.13;;;11.13;;
19492;SDS011;9887;54.366;10.958;2024-01-30T14:10:13;16.50;;;11.70;;
19492;SDS011;9887;54.366;10.958;2024-01-30T14:12:42;18.52;;;11.48;;
19492;SDS011;9887;54.366;10.958;2024-01-30T14:15:11;16.50;;;11.05;;
19492;SDS011;9887;54.366;10.958;2024-01-30T14:17:54;15.05;;;10.85;;
19492;SDS011;9887;54.366;10.958;2024-01-30T14:20:25;15.88;;;11.23;;
19492;SDS011;9887;54.366;10.958;2024-01-30T14:22:52;17.45;;;11.82;;
19492;SDS011;9887;54.366;10.958;2024-01-30T14:25:22;16.90;;;11.23;;
19492;SDS011;9887;54.366;10.958;2024-01-30T14:27:50;16.55;;;11.02;;
19492;SDS011;9887;54.366;10.958;2024-01-30T14:30:19;17.33;;;12.35;;
19492;SDS011;9887;54.366;10.958;2024-01-30T14:32:47;16.58;;;11.20;;
19492;SDS011;9887;54.366;10.958;2024-01-30T14:35:16;20.25;;;11.98;;